• Join FlightAware (Why Join?)
  • Login
  • US Flag 
08:58AM EST


 

Airport Tracker/Info


-or-


 

Live Flight TrackerFlight Track Log ✈ AAY894 ✈ 19-Jun-2014 ✈ KPIE - KIAG

Flight Track Log - Related Links

Times and Time Zones

All times are in EDT time to prevent confusion due to time zone crossing. See the AAY894 flight status page for this flight to view local times or setup timezone preferences in your user account.

Time Position Orientation Groundspeed Altitude Reporting Facility
EDT Latitude Longitude Course Direction KTS MPH feet Rate Location/Type
07:51AM 27.9000 -82.6833 201° Southwest 181 208 600  Level Tampa TRACON
07:53AM 27.8236 -82.7161 201° Southwest 227 261 3,600 1,980 Climbing Miami Center
07:54AM 27.8967 -82.7481 339° North 280 322 6,100 2,520 Climbing Miami Center
07:55AM 27.9756 -82.7328 10° North 285 328 8,800 2,280 Climbing Miami Center
07:56AM 28.0603 -82.7225 North 300 345 10,800 1,500 Climbing Miami Center
07:57AM 28.1578 -82.7131 North 341 392 11,900 1,080 Climbing Miami Center
07:57AM 28.2042 -82.7136 359° North 326 375 12,500 2,040 Climbing Jacksonville Center
07:58AM 28.3189 -82.7039 North 375 432 15,000 2,340 Climbing Jacksonville Center
07:59AM 28.4356 -82.6919 North 402 463 17,200 1,800 Climbing Jacksonville Center
08:00AM 28.5547 -82.6800 North 421 484 18,700 1,620 Climbing Jacksonville Center
08:01AM 28.6797 -82.6703 North 434 499 20,500 1,800 Climbing Jacksonville Center
08:02AM 28.7986 -82.6603 North 434 499 22,400 1,500 Climbing Jacksonville Center
08:03AM 28.9261 -82.6506 North 444 511 23,600 1,440 Climbing Jacksonville Center
08:04AM 29.0533 -82.6383 North 449 517 25,300 1,680 Climbing Jacksonville Center
08:05AM 29.1786 -82.6286 North 449 517 27,000 1,680 Climbing Jacksonville Center
08:06AM 29.3039 -82.6164 North 449 517 28,700 1,680 Climbing Jacksonville Center
08:07AM 29.4269 -82.6064 North 443 510 30,400 1,080 Climbing Jacksonville Center
08:08AM 29.5439 -82.6014 North 431 496 30,900 300 Climbing Jacksonville Center
08:09AM 29.6608 -82.5939 North 420 483 31,000  Climbing Jacksonville Center
08:10AM 29.7797 -82.5864 North 420 483 31,000 540 Level Jacksonville Center
08:11AM 29.8986 -82.5811 North 420 483 32,100 900 Climbing Jacksonville Center
08:12AM 30.0281 -82.5808 360° North 420 483 32,900 360 Climbing Jacksonville Center
08:13AM 30.1303 -82.5731 North 420 483 32,900  Level Jacksonville Center
08:14AM 30.2453 -82.5681 North 415 478 32,900  Level Jacksonville Center
08:15AM 30.3622 -82.5603 North 415 478 33,000  Climbing Jacksonville Center
08:16AM 30.4769 -82.5550 North 415 478 33,000 -60 Level Jacksonville Center
08:17AM 30.5939 -82.5500 North 415 478 32,900 -60 Descending Jacksonville Center
08:18AM 30.7108 -82.5469 North 415 478 32,900  Level Jacksonville Center
08:19AM 30.8256 -82.5417 North 415 478 32,900  Level Jacksonville Center
08:20AM 30.9406 -82.5342 North 415 478 32,900  Level Jacksonville Center
08:21AM 31.0572 -82.5289 North 415 478 33,000  Climbing Jacksonville Center
08:22AM 31.1742 -82.5258 North 421 484 32,900 -60 Descending Jacksonville Center
08:23AM 31.2869 -82.5231 North 421 484 32,900  Level Jacksonville Center
08:24AM 31.4164 -82.5103 North 416 479 33,000  Climbing Jacksonville Center
08:25AM 31.5333 -82.5075 North 416 479 33,000  Level Jacksonville Center
08:27AM 31.7389 -82.4783 North 419 482 33,000  Level Atlanta Center
08:28AM 31.8556 -82.4592 North 419 482 33,000  Level Atlanta Center
08:29AM 31.9700 -82.4403 North 419 482 33,000  Level Atlanta Center
08:30AM 32.0886 -82.4208 North 424 488 33,000  Level Atlanta Center
08:31AM 32.2033 -82.4042 North 424 488 33,000  Level Atlanta Center
08:32AM 32.3136 -82.3897 North 419 482 33,000  Level Atlanta Center
08:33AM 32.4303 -82.3703 North 414 476 33,000  Level Atlanta Center
08:34AM 32.5450 -82.3508 North 414 476 33,000  Level Atlanta Center
08:35AM 32.6594 -82.3314 North 414 476 33,000  Level Atlanta Center
08:36AM 32.7739 -82.3144 North 414 476 33,000  Level Atlanta Center
08:37AM 32.9011 -82.2922 North 414 476 33,000  Level Atlanta Center
08:38AM 33.0156 -82.2750 North 414 476 33,000  Level Atlanta Center
08:39AM 33.1300 -82.2553 North 408 470 33,000  Level Atlanta Center
08:40AM 33.2444 -82.2356 North 408 470 33,000  Level Atlanta Center
08:41AM 33.3592 -82.2183 North 408 470 33,000  Level Atlanta Center
08:42AM 33.4736 -82.1983 North 408 470 33,000  Level Atlanta Center
08:43AM 33.5903 -82.1808 North 408 470 33,000  Level Atlanta Center
08:44AM 33.7047 -82.1611 North 408 470 33,000  Level Atlanta Center
08:45AM 33.8214 -82.1383 North 408 470 33,000  Level Atlanta Center
08:46AM 33.9275 -82.1211 North 414 476 33,000  Level Atlanta Center
08:47AM 34.0419 -82.1033 North 414 476 33,000  Level Atlanta Center
08:48AM 34.1564 -82.0833 North 414 476 33,000  Level Atlanta Center
08:49AM 34.2708 -82.0631 North 414 476 33,000  Level Atlanta Center
08:50AM 34.3875 -82.0403 North 414 476 33,000  Level Atlanta Center
08:51AM 34.5017 -82.0097 12° North 414 476 33,000  Level Atlanta Center
08:52AM 34.6161 -81.9817 11° North 414 476 33,000  Level Atlanta Center
08:53AM 34.7281 -81.9511 13° North 414 476 33,000  Level Atlanta Center
08:54AM 34.8425 -81.9256 10° North 409 471 33,000  Level Atlanta Center
08:55AM 34.9567 -81.8972 11° North 409 471 33,000  Level Atlanta Center
08:56AM 35.0711 -81.8689 11° North 409 471 33,000  Level Atlanta Center
08:57AM 35.1831 -81.8381 13° North 409 471 33,000  Level Atlanta Center
08:58AM 35.2975 -81.8069 13° North 409 471 33,000  Level Atlanta Center
08:59AM 35.4117 -81.7758 13° North 409 471 33,000  Level Atlanta Center
09:00AM 35.5236 -81.7447 13° North 409 471 33,000  Level Atlanta Center
09:01AM 35.6503 -81.7131 11° North 414 476 33,000  Level Atlanta Center
09:02AM 35.7644 -81.6792 14° North 414 476 33,000  Level Atlanta Center
09:03AM 35.8806 -81.6475 12° North 414 476 33,000  Level Atlanta Center
09:04AM 35.9967 -81.6133 13° North 414 476 33,000  Level Atlanta Center
09:05AM 36.1131 -81.5842 11° North 414 476 33,000  Level Atlanta Center
09:06AM 36.2269 -81.5497 14° North 414 476 33,000  Level Atlanta Center
09:07AM 36.3433 -81.5206 11° North 419 482 33,000  Level Atlanta Center
09:08AM 36.4594 -81.4883 13° North 424 488 33,000  Level Atlanta Center
09:09AM 36.5775 -81.4536 13° North 424 488 33,000  Level Atlanta Center
09:10AM 36.6956 -81.4214 12° North 430 495 33,000  Level Atlanta Center
09:12AM 36.8750 -81.3714 13° North 437 503 33,000  Level Indianapolis Center
09:13AM 36.9931 -81.3383 13° North 437 503 33,000  Level Indianapolis Center
09:14AM 37.1106 -81.3056 13° North 437 503 33,000  Level Indianapolis Center
09:15AM 37.2494 -81.2667 13° North 437 503 33,000  Level Indianapolis Center
09:16AM 37.3486 -81.2386 13° North 437 503 33,000  Level Indianapolis Center
09:17AM 37.4886 -81.1994 13° North 433 498 33,000  Level Indianapolis Center
09:18AM 37.6053 -81.1656 13° North 433 498 33,000  Level Indianapolis Center
09:19AM 37.7236 -81.1319 13° North 433 498 33,000  Level Indianapolis Center
09:20AM 37.8458 -81.0986 12° North 433 498 33,000  Level Indianapolis Center
09:21AM 37.9633 -81.0650 13° North 433 498 33,000  Level Indianapolis Center
09:22AM 38.0825 -81.0306 13° North 434 499 33,000  Level Indianapolis Center
09:23AM 38.2008 -80.9972 12° North 434 499 33,000  Level Indianapolis Center
09:24AM 38.3447 -80.9553 13° North 438 504 33,000  Level Indianapolis Center
09:25AM 38.4647 -80.9194 13° North 439 505 33,000  Level Indianapolis Center
09:26AM 38.5842 -80.8853 13° North 440 506 33,000  Level Indianapolis Center
09:27AM 38.7039 -80.8503 13° North 440 506 33,000  Level Indianapolis Center
09:28AM 38.8244 -80.8150 13° North 443 510 33,000  Level Indianapolis Center
09:30AM 39.0478 -80.7506 13° North 436 502 33,000  Level Cleveland Center
09:31AM 39.1664 -80.7131 14° North 437 503 33,000  Level Cleveland Center
09:32AM 39.2839 -80.6644 18° North 443 510 33,000  Level Cleveland Center
09:33AM 39.3994 -80.6136 19° North 443 510 33,000  Level Cleveland Center
09:34AM 39.5339 -80.5592 17° North 443 510 33,000  Level Cleveland Center
09:35AM 39.6519 -80.5094 18° North 445 512 33,000  Level Cleveland Center
09:36AM 39.7692 -80.4597 18° North 443 510 33,000  Level Cleveland Center
09:37AM 39.8864 -80.4097 18° North 443 510 33,000  Level Cleveland Center
09:39AM 40.0197 -80.3511 19° North 435 501 33,000  Level Cleveland Center
09:40AM 40.1283 -80.3036 18° North 432 497 33,000  Level Cleveland Center
09:41AM 40.2425 -80.2553 18° North 432 497 33,000  Level Cleveland Center
09:42AM 40.3572 -80.2039 19° North 433 498 33,000  Level Cleveland Center
09:43AM 40.4944 -80.1431 19° North 436 502 33,000  Level Cleveland Center
09:44AM 40.6094 -80.0933 18° North 436 502 33,000  Level Cleveland Center
09:45AM 40.7250 -80.0442 18° North 436 502 33,000 -120 Level Cleveland Center
09:46AM 40.8425 -79.9919 19° North 442 509 32,800 -600 Descending Cleveland Center
09:47AM 40.9592 -79.9389 19° North 443 510 31,800 -900 Descending Cleveland Center
09:48AM 41.0761 -79.8847 19° North 444 511 31,000 -420 Descending Cleveland Center
09:49AM 41.2164 -79.8236 18° North 444 511 31,000 -300 Level Cleveland Center
09:50AM 41.3325 -79.7714 19° North 443 510 30,400 -780 Descending Cleveland Center
09:51AM 41.4497 -79.7181 19° North 443 510 29,500 -1,020 Descending Cleveland Center
09:52AM 41.5683 -79.6644 19° North 448 516 28,400 -1,080 Descending Cleveland Center
09:53AM 41.6842 -79.6103 19° North 446 513 27,400 -1,500 Descending Cleveland Center
09:54AM 41.7981 -79.5583 19° North 433 498 25,300 -2,280 Descending Cleveland Center
09:55AM 41.9261 -79.4997 19° North 408 470 22,800 -2,220 Descending Cleveland Center
09:56AM 42.0317 -79.4503 19° North 407 468 20,800 -2,040 Descending Cleveland Center
09:57AM 42.1375 -79.4022 19° North 405 466 18,600 -2,100 Descending Cleveland Center
09:58AM 42.2375 -79.3553 19° North 387 445 16,600 -1,980 Descending Cleveland Center
09:59AM 42.3328 -79.3114 19° North 370 426 14,600 -1,800 Descending Cleveland Center
10:00AM 42.4269 -79.2675 19° North 360 414 12,900 -1,500 Descending Cleveland Center
10:01AM 42.5275 -79.2231 18° North 359 413 11,500 -1,080 Descending Cleveland Center
10:02AM 42.6100 -79.1831 20° North 316 364 10,700 -1,260 Descending Cleveland Center
10:03AM 42.6992 -79.1422 19° North 284 327 8,900 -1,560 Descending Cleveland Center
10:04AM 42.7697 -79.1114 18° North 279 321 7,500 -1,320 Descending Cleveland Center
10:05AM 42.8369 -79.0625 28° Northeast 276 318 6,300 -1,320 Descending Cleveland Center
10:06AM 42.8964 -78.9942 40° Northeast 270 311 4,800 -1,140 Descending Cleveland Center
10:07AM 42.9514 -78.9283 41° Northeast 258 297 4,000 -420 Descending Cleveland Center
10:08AM 42.9964 -78.8508 52° Northeast 257 296 4,000 -60 Level Cleveland Center
10:09AM 43.0583 -78.8381 North 244 281 3,900 -540 Descending Cleveland Center
10:10AM 43.1175 -78.8392 359° North 212 244 3,000 -480 Descending Cleveland Center
10:12AM 43.1761 -78.8517 351° North 211 243 3,000 -300 Level Cleveland Center
10:13AM 43.1819 -78.9389 275° West 223 257 2,400 -540 Descending Cleveland Center
10:14AM 43.1806 -79.0206 269° West 207 238 2,000 -300 Descending Cleveland Center
10:15AM 43.1372 -79.0353 194° South 182 209 1,800 -420 Descending Cleveland Center
10:16AM 43.1097 -79.0064 143° Southeast 149 171 1,200 -360 Descending Cleveland Center
10:17AM 43.1086 -78.9594 92° East 141 162 1,100 -120 Descending Cleveland Center